sensor_id;sensor_type;location;lat;lon;timestamp;temperature;humidity
28546;DHT22;15749;49.606;8.738;2023-08-31T00:02:03;21.80;99.90
28546;DHT22;15749;49.606;8.738;2023-08-31T00:04:33;21.80;99.90
28546;DHT22;15749;49.606;8.738;2023-08-31T00:07:03;21.80;99.90
28546;DHT22;15749;49.606;8.738;2023-08-31T00:09:32;21.80;99.90
28546;DHT22;15749;49.606;8.738;2023-08-31T00:12:02;21.80;99.90
28546;DHT22;15749;49.606;8.738;2023-08-31T00:14:31;21.80;99.90
28546;DHT22;15749;49.606;8.738;2023-08-31T00:17:03;21.80;99.90
28546;DHT22;15749;49.606;8.738;2023-08-31T00:19:34;21.80;99.90
28546;DHT22;15749;49.606;8.738;2023-08-31T00:22:03;21.70;99.90
28546;DHT22;15749;49.606;8.738;2023-08-31T00:24:33;21.80;99.90
28546;DHT22;15749;49.606;8.738;2023-08-31T00:27:04;21.70;99.90
28546;DHT22;15749;49.606;8.738;2023-08-31T00:29:34;21.70;99.90
28546;DHT22;15749;49.606;8.738;2023-08-31T00:32:36;21.70;99.90
28546;DHT22;15749;49.606;8.738;2023-08-31T00:35:08;21.70;99.90
28546;DHT22;15749;49.606;8.738;2023-08-31T00:37:40;21.70;99.90
28546;DHT22;15749;49.606;8.738;2023-08-31T00:40:11;21.70;99.90
28546;DHT22;15749;49.606;8.738;2023-08-31T00:42:41;21.70;99.90
28546;DHT22;15749;49.606;8.738;2023-08-31T00:45:12;21.70;99.90
28546;DHT22;15749;49.606;8.738;2023-08-31T00:47:41;21.70;99.90
28546;DHT22;15749;49.606;8.738;2023-08-31T00:50:12;21.70;99.90
28546;DHT22;15749;49.606;8.738;2023-08-31T00:52:43;21.70;99.90
28546;DHT22;15749;49.606;8.738;2023-08-31T00:55:13;21.70;99.90
28546;DHT22;15749;49.606;8.738;2023-08-31T00:57:45;21.70;99.90
28546;DHT22;15749;49.606;8.738;2023-08-31T01:00:15;21.70;99.90
28546;DHT22;15749;49.606;8.738;2023-08-31T01:02:50;21.70;99.90
28546;DHT22;15749;49.606;8.738;2023-08-31T01:05:38;21.70;99.90
28546;DHT22;15749;49.606;8.738;2023-08-31T01:08:18;21.60;99.90
28546;DHT22;15749;49.606;8.738;2023-08-31T01:11:00;21.60;99.90
28546;DHT22;15749;49.606;8.738;2023-08-31T01:13:34;21.60;99.90
28546;DHT22;15749;49.606;8.738;2023-08-31T01:16:07;21.60;99.90
28546;DHT22;15749;49.606;8.738;2023-08-31T01:18:39;21.60;99.90
28546;DHT22;15749;49.606;8.738;2023-08-31T01:21:16;21.60;99.90
28546;DHT22;15749;49.606;8.738;2023-08-31T01:23:55;21.60;99.90
28546;DHT22;15749;49.606;8.738;2023-08-31T01:26:25;21.50;99.90
28546;DHT22;15749;49.606;8.738;2023-08-31T01:28:57;21.50;99.90
28546;DHT22;15749;49.606;8.738;2023-08-31T01:31:30;21.60;99.90
28546;DHT22;15749;49.606;8.738;2023-08-31T01:33:59;21.50;99.90
28546;DHT22;15749;49.606;8.738;2023-08-31T01:36:33;21.50;99.90
28546;DHT22;15749;49.606;8.738;2023-08-31T01:39:13;21.50;99.90
28546;DHT22;15749;49.606;8.738;2023-08-31T01:41:45;21.50;99.90
28546;DHT22;15749;49.606;8.738;2023-08-31T01:44:19;21.50;99.90
28546;DHT22;15749;49.606;8.738;2023-08-31T01:46:53;21.50;99.90
28546;DHT22;15749;49.606;8.738;2023-08-31T01:49:24;21.40;99.90
28546;DHT22;15749;49.606;8.738;2023-08-31T01:51:53;21.40;99.90
28546;DHT22;15749;49.606;8.738;2023-08-31T01:54:24;21.40;99.90
28546;DHT22;15749;49.606;8.738;2023-08-31T01:56:53;21.40;99.90
28546;DHT22;15749;49.606;8.738;2023-08-31T01:59:23;21.40;99.90
28546;DHT22;15749;49.606;8.738;2023-08-31T02:01:52;21.30;99.90
28546;DHT22;15749;49.606;8.738;2023-08-31T02:04:21;21.40;99.90
28546;DHT22;15749;49.606;8.738;2023-08-31T02:06:50;21.30;99.90
28546;DHT22;15749;49.606;8.738;2023-08-31T02:09:20;21.30;99.90
28546;DHT22;15749;49.606;8.738;2023-08-31T02:11:50;21.30;99.90
28546;DHT22;15749;49.606;8.738;2023-08-31T02:14:20;21.30;99.90
28546;DHT22;15749;49.606;8.738;2023-08-31T02:16:50;21.30;99.90
28546;DHT22;15749;49.606;8.738;2023-08-31T02:19:19;21.20;99.90
28546;DHT22;15749;49.606;8.738;2023-08-31T02:21:48;21.20;99.90
28546;DHT22;15749;49.606;8.738;2023-08-31T02:24:17;21.30;99.90
28546;DHT22;15749;49.606;8.738;2023-08-31T02:26:45;21.20;99.90
28546;DHT22;15749;49.606;8.738;2023-08-31T02:29:16;21.20;99.90
28546;DHT22;15749;49.606;8.738;2023-08-31T02:31:45;21.30;99.90
28546;DHT22;15749;49.606;8.738;2023-08-31T02:34:14;21.20;99.90
28546;DHT22;15749;49.606;8.738;2023-08-31T02:36:43;21.20;99.90
28546;DHT22;15749;49.606;8.738;2023-08-31T02:39:12;21.20;99.90
28546;DHT22;15749;49.606;8.738;2023-08-31T02:41:41;21.20;99.90
28546;DHT22;15749;49.606;8.738;2023-08-31T02:44:11;21.20;99.90
28546;DHT22;15749;49.606;8.738;2023-08-31T02:46:41;21.20;99.90
28546;DHT22;15749;49.606;8.738;2023-08-31T02:49:12;21.20;99.90
28546;DHT22;15749;49.606;8.738;2023-08-31T02:51:41;21.20;99.90
28546;DHT22;15749;49.606;8.738;2023-08-31T02:54:10;21.20;99.90
28546;DHT22;15749;49.606;8.738;2023-08-31T02:56:39;21.20;99.90
28546;DHT22;15749;49.606;8.738;2023-08-31T02:59:09;21.20;99.90
28546;DHT22;15749;49.606;8.738;2023-08-31T03:01:39;21.20;99.90
28546;DHT22;15749;49.606;8.738;2023-08-31T03:04:09;21.20;99.90
28546;DHT22;15749;49.606;8.738;2023-08-31T03:06:39;21.20;99.90
28546;DHT22;15749;49.606;8.738;2023-08-31T03:09:08;21.10;99.90
28546;DHT22;15749;49.606;8.738;2023-08-31T03:11:38;21.10;99.90
28546;DHT22;15749;49.606;8.738;2023-08-31T03:14:07;21.10;99.90
28546;DHT22;15749;49.606;8.738;2023-08-31T03:16:37;21.10;99.90
28546;DHT22;15749;49.606;8.738;2023-08-31T03:19:07;21.10;99.90
28546;DHT22;15749;49.606;8.738;2023-08-31T03:21:37;21.10;99.90
28546;DHT22;15749;49.606;8.738;2023-08-31T03:24:07;21.10;99.90
28546;DHT22;15749;49.606;8.738;2023-08-31T03:26:36;21.10;99.90
28546;DHT22;15749;49.606;8.738;2023-08-31T03:29:05;21.10;99.90
28546;DHT22;15749;49.606;8.738;2023-08-31T03:31:34;21.10;99.90
28546;DHT22;15749;49.606;8.738;2023-08-31T03:34:05;21.10;99.90
28546;DHT22;15749;49.606;8.738;2023-08-31T03:36:34;21.10;99.90
28546;DHT22;15749;49.606;8.738;2023-08-31T03:39:09;21.10;99.90
28546;DHT22;15749;49.606;8.738;2023-08-31T03:41:38;21.10;99.90
28546;DHT22;15749;49.606;8.738;2023-08-31T03:44:08;21.00;99.90
28546;DHT22;15749;49.606;8.738;2023-08-31T03:46:38;21.10;99.90
28546;DHT22;15749;49.606;8.738;2023-08-31T03:49:07;21.00;99.90
28546;DHT22;15749;49.606;8.738;2023-08-31T03:51:36;21.00;99.90
28546;DHT22;15749;49.606;8.738;2023-08-31T03:54:06;21.00;99.90
28546;DHT22;15749;49.606;8.738;2023-08-31T03:56:36;21.00;99.90
28546;DHT22;15749;49.606;8.738;2023-08-31T03:59:05;21.00;99.90
28546;DHT22;15749;49.606;8.738;2023-08-31T04:01:35;21.00;99.90
28546;DHT22;15749;49.606;8.738;2023-08-31T04:04:04;20.90;99.90
28546;DHT22;15749;49.606;8.738;2023-08-31T04:06:33;20.90;99.90
28546;DHT22;15749;49.606;8.738;2023-08-31T04:09:06;20.90;99.90
28546;DHT22;15749;49.606;8.738;2023-08-31T04:11:38;20.90;99.90
28546;DHT22;15749;49.606;8.738;2023-08-31T04:14:07;20.90;99.90
28546;DHT22;15749;49.606;8.738;2023-08-31T04:16:36;20.90;99.90
28546;DHT22;15749;49.606;8.738;2023-08-31T04:19:06;20.90;99.90
28546;DHT22;15749;49.606;8.738;2023-08-31T04:21:35;20.90;99.90
28546;DHT22;15749;49.606;8.738;2023-08-31T04:24:06;20.90;99.90
28546;DHT22;15749;49.606;8.738;2023-08-31T04:26:35;20.90;99.90
28546;DHT22;15749;49.606;8.738;2023-08-31T04:29:06;20.80;99.90
28546;DHT22;15749;49.606;8.738;2023-08-31T04:31:35;20.80;99.90
28546;DHT22;15749;49.606;8.738;2023-08-31T04:34:05;20.80;99.90
28546;DHT22;15749;49.606;8.738;2023-08-31T04:36:35;20.80;99.90
28546;DHT22;15749;49.606;8.738;2023-08-31T04:39:04;20.80;99.90
28546;DHT22;15749;49.606;8.738;2023-08-31T04:41:35;20.80;99.90
28546;DHT22;15749;49.606;8.738;2023-08-31T04:44:05;20.80;99.90
28546;DHT22;15749;49.606;8.738;2023-08-31T04:46:35;20.80;99.90
28546;DHT22;15749;49.606;8.738;2023-08-31T04:49:04;20.80;99.90
28546;DHT22;15749;49.606;8.738;2023-08-31T04:51:35;20.80;99.90
28546;DHT22;15749;49.606;8.738;2023-08-31T04:54:06;20.80;99.90
28546;DHT22;15749;49.606;8.738;2023-08-31T04:56:36;20.80;99.90
28546;DHT22;15749;49.606;8.738;2023-08-31T04:59:07;20.70;99.90
28546;DHT22;15749;49.606;8.738;2023-08-31T05:01:36;20.70;99.90
28546;DHT22;15749;49.606;8.738;2023-08-31T05:04:06;20.70;99.90
28546;DHT22;15749;49.606;8.738;2023-08-31T05:06:35;20.70;99.90
28546;DHT22;15749;49.606;8.738;2023-08-31T05:09:05;20.70;99.90
28546;DHT22;15749;49.606;8.738;2023-08-31T05:11:35;20.70;99.90
28546;DHT22;15749;49.606;8.738;2023-08-31T05:14:04;20.70;99.90
28546;DHT22;15749;49.606;8.738;2023-08-31T05:16:34;20.70;99.90
28546;DHT22;15749;49.606;8.738;2023-08-31T05:19:04;20.70;99.90
28546;DHT22;15749;49.606;8.738;2023-08-31T05:21:33;20.70;99.90
28546;DHT22;15749;49.606;8.738;2023-08-31T05:24:02;20.70;99.90
28546;DHT22;15749;49.606;8.738;2023-08-31T05:26:31;20.70;99.90
28546;DHT22;15749;49.606;8.738;2023-08-31T05:29:00;20.70;99.90
28546;DHT22;15749;49.606;8.738;2023-08-31T05:31:34;20.70;99.90
28546;DHT22;15749;49.606;8.738;2023-08-31T05:34:04;20.60;99.90
28546;DHT22;15749;49.606;8.738;2023-08-31T05:36:34;20.60;99.90
28546;DHT22;15749;49.606;8.738;2023-08-31T05:39:03;20.60;99.90
28546;DHT22;15749;49.606;8.738;2023-08-31T05:41:32;20.60;99.90
28546;DHT22;15749;49.606;8.738;2023-08-31T05:44:02;20.60;99.90
28546;DHT22;15749;49.606;8.738;2023-08-31T05:46:31;20.60;99.90
28546;DHT22;15749;49.606;8.738;2023-08-31T05:49:02;20.60;99.90
28546;DHT22;15749;49.606;8.738;2023-08-31T05:51:34;20.60;99.90
28546;DHT22;15749;49.606;8.738;2023-08-31T05:54:03;20.60;99.90
28546;DHT22;15749;49.606;8.738;2023-08-31T05:56:33;20.60;99.90
28546;DHT22;15749;49.606;8.738;2023-08-31T05:59:02;20.60;99.90
28546;DHT22;15749;49.606;8.738;2023-08-31T06:01:31;20.60;99.90
28546;DHT22;15749;49.606;8.738;2023-08-31T06:04:02;20.60;99.90
28546;DHT22;15749;49.606;8.738;2023-08-31T06:06:33;20.60;99.90
28546;DHT22;15749;49.606;8.738;2023-08-31T06:09:02;20.60;99.90
28546;DHT22;15749;49.606;8.738;2023-08-31T06:11:32;20.60;99.90
28546;DHT22;15749;49.606;8.738;2023-08-31T06:14:02;20.50;99.90
28546;DHT22;15749;49.606;8.738;2023-08-31T06:16:32;20.50;99.90
28546;DHT22;15749;49.606;8.738;2023-08-31T06:19:03;20.60;99.90
28546;DHT22;15749;49.606;8.738;2023-08-31T06:21:33;20.50;99.90
28546;DHT22;15749;49.606;8.738;2023-08-31T06:24:02;20.60;99.90
28546;DHT22;15749;49.606;8.738;2023-08-31T06:26:32;20.50;99.90
28546;DHT22;15749;49.606;8.738;2023-08-31T06:29:02;20.50;99.90
28546;DHT22;15749;49.606;8.738;2023-08-31T06:31:31;20.60;99.90
28546;DHT22;15749;49.606;8.738;2023-08-31T06:34:00;20.60;99.90
28546;DHT22;15749;49.606;8.738;2023-08-31T06:36:32;20.60;99.90
28546;DHT22;15749;49.606;8.738;2023-08-31T06:39:02;20.60;99.90
28546;DHT22;15749;49.606;8.738;2023-08-31T06:41:32;20.60;99.90
28546;DHT22;15749;49.606;8.738;2023-08-31T06:44:02;20.60;99.90
28546;DHT22;15749;49.606;8.738;2023-08-31T06:46:32;20.60;99.90
28546;DHT22;15749;49.606;8.738;2023-08-31T06:49:05;20.60;99.90
28546;DHT22;15749;49.606;8.738;2023-08-31T06:51:36;20.60;99.90
28546;DHT22;15749;49.606;8.738;2023-08-31T06:54:07;20.70;99.90
28546;DHT22;15749;49.606;8.738;2023-08-31T06:56:37;20.70;99.90
28546;DHT22;15749;49.606;8.738;2023-08-31T06:59:06;20.70;99.90
28546;DHT22;15749;49.606;8.738;2023-08-31T07:01:35;20.70;99.90
28546;DHT22;15749;49.606;8.738;2023-08-31T07:04:05;20.70;99.90
28546;DHT22;15749;49.606;8.738;2023-08-31T07:06:36;20.70;99.90
28546;DHT22;15749;49.606;8.738;2023-08-31T07:09:05;20.70;99.90
28546;DHT22;15749;49.606;8.738;2023-08-31T07:11:36;20.70;99.90
28546;DHT22;15749;49.606;8.738;2023-08-31T07:14:05;20.80;99.90
28546;DHT22;15749;49.606;8.738;2023-08-31T07:16:34;20.80;99.90
28546;DHT22;15749;49.606;8.738;2023-08-31T07:19:04;20.80;99.90
28546;DHT22;15749;49.606;8.738;2023-08-31T07:21:33;20.80;99.90
28546;DHT22;15749;49.606;8.738;2023-08-31T07:24:04;20.80;99.90
28546;DHT22;15749;49.606;8.738;2023-08-31T07:26:33;20.80;99.90
28546;DHT22;15749;49.606;8.738;2023-08-31T07:29:03;20.90;99.90
28546;DHT22;15749;49.606;8.738;2023-08-31T07:31:32;20.90;99.90
28546;DHT22;15749;49.606;8.738;2023-08-31T07:34:01;20.90;99.90
28546;DHT22;15749;49.606;8.738;2023-08-31T07:36:34;20.90;99.90
28546;DHT22;15749;49.606;8.738;2023-08-31T07:39:05;20.90;99.90
28546;DHT22;15749;49.606;8.738;2023-08-31T07:41:34;20.90;99.90
28546;DHT22;15749;49.606;8.738;2023-08-31T07:44:04;20.90;99.90
28546;DHT22;15749;49.606;8.738;2023-08-31T07:46:33;20.90;99.90
28546;DHT22;15749;49.606;8.738;2023-08-31T07:49:02;20.90;99.90
28546;DHT22;15749;49.606;8.738;2023-08-31T07:51:32;20.90;99.90
28546;DHT22;15749;49.606;8.738;2023-08-31T07:54:01;20.90;99.90
28546;DHT22;15749;49.606;8.738;2023-08-31T07:56:33;20.90;99.90
28546;DHT22;15749;49.606;8.738;2023-08-31T07:59:02;20.90;99.90
28546;DHT22;15749;49.606;8.738;2023-08-31T08:01:32;20.90;99.90
28546;DHT22;15749;49.606;8.738;2023-08-31T08:04:01;21.00;99.90
28546;DHT22;15749;49.606;8.738;2023-08-31T08:06:30;21.00;99.90
28546;DHT22;15749;49.606;8.738;2023-08-31T08:09:02;21.00;99.90
28546;DHT22;15749;49.606;8.738;2023-08-31T08:11:34;21.00;99.90
28546;DHT22;15749;49.606;8.738;2023-08-31T08:14:04;21.00;99.90
28546;DHT22;15749;49.606;8.738;2023-08-31T08:16:33;21.00;99.90
28546;DHT22;15749;49.606;8.738;2023-08-31T08:19:03;21.00;99.90
28546;DHT22;15749;49.606;8.738;2023-08-31T08:21:32;21.00;99.90
28546;DHT22;15749;49.606;8.738;2023-08-31T08:24:01;21.00;99.90
28546;DHT22;15749;49.606;8.738;2023-08-31T08:26:32;21.00;99.90
28546;DHT22;15749;49.606;8.738;2023-08-31T08:29:01;21.00;99.90
28546;DHT22;15749;49.606;8.738;2023-08-31T08:31:31;21.10;99.90
28546;DHT22;15749;49.606;8.738;2023-08-31T08:34:03;21.10;99.90
28546;DHT22;15749;49.606;8.738;2023-08-31T08:36:33;21.10;99.90
28546;DHT22;15749;49.606;8.738;2023-08-31T08:39:02;21.10;99.90
28546;DHT22;15749;49.606;8.738;2023-08-31T08:41:34;21.10;99.90
28546;DHT22;15749;49.606;8.738;2023-08-31T08:44:07;21.10;99.90
28546;DHT22;15749;49.606;8.738;2023-08-31T08:46:37;21.10;99.90
28546;DHT22;15749;49.606;8.738;2023-08-31T08:49:07;21.10;99.90
28546;DHT22;15749;49.606;8.738;2023-08-31T08:51:36;21.20;99.90
28546;DHT22;15749;49.606;8.738;2023-08-31T08:54:05;21.20;99.90
28546;DHT22;15749;49.606;8.738;2023-08-31T08:56:36;21.20;99.90
28546;DHT22;15749;49.606;8.738;2023-08-31T08:59:06;21.20;99.90
28546;DHT22;15749;49.606;8.738;2023-08-31T09:01:35;21.20;99.90
28546;DHT22;15749;49.606;8.738;2023-08-31T09:04:05;21.20;99.90
28546;DHT22;15749;49.606;8.738;2023-08-31T09:06:34;21.20;99.90
28546;DHT22;15749;49.606;8.738;2023-08-31T09:09:04;21.20;99.90
28546;DHT22;15749;49.606;8.738;2023-08-31T09:11:36;21.20;99.90
28546;DHT22;15749;49.606;8.738;2023-08-31T09:14:14;21.30;99.90
28546;DHT22;15749;49.606;8.738;2023-08-31T09:16:45;21.30;99.90
28546;DHT22;15749;49.606;8.738;2023-08-31T09:19:19;21.30;99.90
28546;DHT22;15749;49.606;8.738;2023-08-31T09:21:48;21.30;99.90
28546;DHT22;15749;49.606;8.738;2023-08-31T09:24:18;21.40;99.90
28546;DHT22;15749;49.606;8.738;2023-08-31T09:26:53;21.40;99.90
28546;DHT22;15749;49.606;8.738;2023-08-31T09:29:22;21.40;99.90
28546;DHT22;15749;49.606;8.738;2023-08-31T09:31:51;21.50;99.90
28546;DHT22;15749;49.606;8.738;2023-08-31T09:34:21;21.50;99.90
28546;DHT22;15749;49.606;8.738;2023-08-31T09:36:50;21.60;99.90
28546;DHT22;15749;49.606;8.738;2023-08-31T09:39:19;21.60;99.90
28546;DHT22;15749;49.606;8.738;2023-08-31T09:41:56;21.70;99.90
28546;DHT22;15749;49.606;8.738;2023-08-31T09:44:27;21.70;99.90
28546;DHT22;15749;49.606;8.738;2023-08-31T09:46:58;21.80;99.90
28546;DHT22;15749;49.606;8.738;2023-08-31T09:49:36;21.80;99.90
28546;DHT22;15749;49.606;8.738;2023-08-31T09:52:06;21.90;99.90
28546;DHT22;15749;49.606;8.738;2023-08-31T09:54:35;21.90;99.90
28546;DHT22;15749;49.606;8.738;2023-08-31T09:57:06;22.00;99.90
28546;DHT22;15749;49.606;8.738;2023-08-31T09:59:36;22.00;99.90
28546;DHT22;15749;49.606;8.738;2023-08-31T10:02:13;22.00;99.90
28546;DHT22;15749;49.606;8.738;2023-08-31T10:04:45;22.10;99.90
28546;DHT22;15749;49.606;8.738;2023-08-31T10:07:15;22.10;99.90
28546;DHT22;15749;49.606;8.738;2023-08-31T10:09:45;22.10;99.90
28546;DHT22;15749;49.606;8.738;2023-08-31T10:12:17;22.10;99.90
28546;DHT22;15749;49.606;8.738;2023-08-31T10:14:48;22.20;99.90
28546;DHT22;15749;49.606;8.738;2023-08-31T10:17:20;22.30;99.90
28546;DHT22;15749;49.606;8.738;2023-08-31T10:19:50;22.30;99.90
28546;DHT22;15749;49.606;8.738;2023-08-31T10:22:20;22.40;99.90
28546;DHT22;15749;49.606;8.738;2023-08-31T10:25:00;22.40;99.90
28546;DHT22;15749;49.606;8.738;2023-08-31T10:27:38;22.50;99.90
28546;DHT22;15749;49.606;8.738;2023-08-31T10:30:25;22.50;99.90
28546;DHT22;15749;49.606;8.738;2023-08-31T10:33:23;22.60;99.90
28546;DHT22;15749;49.606;8.738;2023-08-31T10:35:54;22.60;99.90
28546;DHT22;15749;49.606;8.738;2023-08-31T10:38:26;22.60;99.90
28546;DHT22;15749;49.606;8.738;2023-08-31T10:43:52;22.60;99.90
28546;DHT22;15749;49.606;8.738;2023-08-31T10:46:30;22.60;99.90
28546;DHT22;15749;49.606;8.738;2023-08-31T10:49:00;22.60;99.90
28546;DHT22;15749;49.606;8.738;2023-08-31T10:51:31;22.60;99.90
28546;DHT22;15749;49.606;8.738;2023-08-31T10:54:08;22.50;99.90
28546;DHT22;15749;49.606;8.738;2023-08-31T10:57:04;22.50;99.90
28546;DHT22;15749;49.606;8.738;2023-08-31T10:59:46;22.50;99.90
28546;DHT22;15749;49.606;8.738;2023-08-31T11:02:29;22.50;99.90
28546;DHT22;15749;49.606;8.738;2023-08-31T11:05:00;22.40;99.90
28546;DHT22;15749;49.606;8.738;2023-08-31T11:07:32;22.40;99.90
28546;DHT22;15749;49.606;8.738;2023-08-31T11:10:13;22.40;99.90
28546;DHT22;15749;49.606;8.738;2023-08-31T11:12:44;22.40;99.90
28546;DHT22;15749;49.606;8.738;2023-08-31T11:15:16;22.40;99.90
28546;DHT22;15749;49.606;8.738;2023-08-31T11:17:46;22.40;99.90
28546;DHT22;15749;49.606;8.738;2023-08-31T11:20:17;22.40;99.90
28546;DHT22;15749;49.606;8.738;2023-08-31T11:22:48;22.40;99.90
28546;DHT22;15749;49.606;8.738;2023-08-31T11:25:18;22.40;99.90
28546;DHT22;15749;49.606;8.738;2023-08-31T11:27:54;22.40;99.90
28546;DHT22;15749;49.606;8.738;2023-08-31T11:30:26;22.40;99.90
28546;DHT22;15749;49.606;8.738;2023-08-31T11:33:00;22.40;99.90
28546;DHT22;15749;49.606;8.738;2023-08-31T11:35:33;22.40;99.90
28546;DHT22;15749;49.606;8.738;2023-08-31T11:38:04;22.40;99.90
28546;DHT22;15749;49.606;8.738;2023-08-31T11:40:35;22.50;99.90
28546;DHT22;15749;49.606;8.738;2023-08-31T11:43:05;22.50;99.90
28546;DHT22;15749;49.606;8.738;2023-08-31T11:45:37;22.50;99.90
28546;DHT22;15749;49.606;8.738;2023-08-31T11:48:08;22.50;99.90
28546;DHT22;15749;49.606;8.738;2023-08-31T11:50:38;22.60;99.90
28546;DHT22;15749;49.606;8.738;2023-08-31T11:53:08;22.60;99.90
28546;DHT22;15749;49.606;8.738;2023-08-31T11:55:49;22.70;99.90
28546;DHT22;15749;49.606;8.738;2023-08-31T11:58:19;22.70;99.90
28546;DHT22;15749;49.606;8.738;2023-08-31T12:00:56;22.70;99.90
28546;DHT22;15749;49.606;8.738;2023-08-31T12:03:39;22.80;99.90
28546;DHT22;15749;49.606;8.738;2023-08-31T12:06:18;22.80;99.90
28546;DHT22;15749;49.606;8.738;2023-08-31T12:08:47;22.80;99.90
28546;DHT22;15749;49.606;8.738;2023-08-31T12:11:19;22.80;99.90
28546;DHT22;15749;49.606;8.738;2023-08-31T12:13:50;22.80;99.90
28546;DHT22;15749;49.606;8.738;2023-08-31T12:16:20;22.80;99.90
28546;DHT22;15749;49.606;8.738;2023-08-31T12:18:50;22.80;99.90
28546;DHT22;15749;49.606;8.738;2023-08-31T12:21:19;22.80;99.90
28546;DHT22;15749;49.606;8.738;2023-08-31T12:23:49;22.80;99.90
28546;DHT22;15749;49.606;8.738;2023-08-31T12:26:18;22.80;99.90
28546;DHT22;15749;49.606;8.738;2023-08-31T12:28:47;22.80;99.90
28546;DHT22;15749;49.606;8.738;2023-08-31T12:31:17;22.80;99.90
28546;DHT22;15749;49.606;8.738;2023-08-31T12:33:47;22.80;99.90
28546;DHT22;15749;49.606;8.738;2023-08-31T12:36:17;22.80;99.90
28546;DHT22;15749;49.606;8.738;2023-08-31T12:38:46;22.80;99.90
28546;DHT22;15749;49.606;8.738;2023-08-31T12:41:16;22.80;99.90
28546;DHT22;15749;49.606;8.738;2023-08-31T12:43:45;22.80;99.90
28546;DHT22;15749;49.606;8.738;2023-08-31T12:46:15;22.80;99.90
28546;DHT22;15749;49.606;8.738;2023-08-31T12:48:44;22.80;99.90
28546;DHT22;15749;49.606;8.738;2023-08-31T12:51:15;22.80;99.90
28546;DHT22;15749;49.606;8.738;2023-08-31T12:53:44;22.80;99.90
28546;DHT22;15749;49.606;8.738;2023-08-31T12:56:16;22.80;99.90
28546;DHT22;15749;49.606;8.738;2023-08-31T12:58:50;22.80;99.90
28546;DHT22;15749;49.606;8.738;2023-08-31T13:01:20;22.90;99.90
28546;DHT22;15749;49.606;8.738;2023-08-31T13:03:51;22.90;99.90
28546;DHT22;15749;49.606;8.738;2023-08-31T13:06:22;22.90;99.90
28546;DHT22;15749;49.606;8.738;2023-08-31T13:08:53;22.90;99.90
28546;DHT22;15749;49.606;8.738;2023-08-31T13:11:22;22.90;99.90
28546;DHT22;15749;49.606;8.738;2023-08-31T13:13:52;22.90;99.90
28546;DHT22;15749;49.606;8.738;2023-08-31T13:16:26;22.90;99.90
28546;DHT22;15749;49.606;8.738;2023-08-31T13:18:57;22.90;99.90
28546;DHT22;15749;49.606;8.738;2023-08-31T13:21:27;23.00;99.90
28546;DHT22;15749;49.606;8.738;2023-08-31T13:23:57;23.00;99.90
28546;DHT22;15749;49.606;8.738;2023-08-31T13:26:28;23.00;99.90
28546;DHT22;15749;49.606;8.738;2023-08-31T13:28:57;23.00;99.90
28546;DHT22;15749;49.606;8.738;2023-08-31T13:31:43;23.00;99.90
28546;DHT22;15749;49.606;8.738;2023-08-31T13:34:19;23.00;99.90
28546;DHT22;15749;49.606;8.738;2023-08-31T13:37:13;23.00;99.90
28546;DHT22;15749;49.606;8.738;2023-08-31T13:39:59;23.10;99.90
28546;DHT22;15749;49.606;8.738;2023-08-31T13:42:34;23.10;99.90
28546;DHT22;15749;49.606;8.738;2023-08-31T13:45:29;23.10;99.90
28546;DHT22;15749;49.606;8.738;2023-08-31T13:48:07;23.00;99.90
28546;DHT22;15749;49.606;8.738;2023-08-31T13:50:43;23.10;99.90
28546;DHT22;15749;49.606;8.738;2023-08-31T13:53:20;23.10;99.90
28546;DHT22;15749;49.606;8.738;2023-08-31T13:55:49;23.10;99.90
28546;DHT22;15749;49.606;8.738;2023-08-31T13:58:19;23.10;99.90
28546;DHT22;15749;49.606;8.738;2023-08-31T14:00:49;23.10;99.90
28546;DHT22;15749;49.606;8.738;2023-08-31T14:03:21;23.10;99.90
28546;DHT22;15749;49.606;8.738;2023-08-31T14:05:52;23.10;99.90
28546;DHT22;15749;49.606;8.738;2023-08-31T14:08:23;23.10;99.90
28546;DHT22;15749;49.606;8.738;2023-08-31T14:10:53;23.10;99.90
28546;DHT22;15749;49.606;8.738;2023-08-31T14:13:23;23.10;99.90
28546;DHT22;15749;49.606;8.738;2023-08-31T14:15:53;23.20;99.90
28546;DHT22;15749;49.606;8.738;2023-08-31T14:18:26;23.20;99.90
28546;DHT22;15749;49.606;8.738;2023-08-31T14:20:58;23.20;99.90
28546;DHT22;15749;49.606;8.738;2023-08-31T14:23:30;23.20;99.90
28546;DHT22;15749;49.606;8.738;2023-08-31T14:26:02;23.20;99.90
28546;DHT22;15749;49.606;8.738;2023-08-31T14:28:32;23.20;99.90
28546;DHT22;15749;49.606;8.738;2023-08-31T14:31:05;23.20;99.90
28546;DHT22;15749;49.606;8.738;2023-08-31T14:33:34;23.20;99.90
28546;DHT22;15749;49.606;8.738;2023-08-31T14:36:04;23.20;99.90
28546;DHT22;15749;49.606;8.738;2023-08-31T14:38:34;23.20;99.90
28546;DHT22;15749;49.606;8.738;2023-08-31T14:41:03;23.30;99.90
28546;DHT22;15749;49.606;8.738;2023-08-31T14:43:34;23.30;99.90
28546;DHT22;15749;49.606;8.738;2023-08-31T14:46:03;23.30;99.90
28546;DHT22;15749;49.606;8.738;2023-08-31T14:48:32;23.30;99.90
28546;DHT22;15749;49.606;8.738;2023-08-31T14:51:02;23.30;99.90
28546;DHT22;15749;49.606;8.738;2023-08-31T14:53:31;23.30;99.90
28546;DHT22;15749;49.606;8.738;2023-08-31T14:56:05;23.30;99.90
28546;DHT22;15749;49.606;8.738;2023-08-31T14:58:36;23.30;99.90
28546;DHT22;15749;49.606;8.738;2023-08-31T15:01:08;23.30;99.90
28546;DHT22;15749;49.606;8.738;2023-08-31T15:03:38;23.30;99.90
28546;DHT22;15749;49.606;8.738;2023-08-31T15:06:07;23.40;99.90
28546;DHT22;15749;49.606;8.738;2023-08-31T15:08:38;23.40;99.90
28546;DHT22;15749;49.606;8.738;2023-08-31T15:11:09;23.30;99.90
28546;DHT22;15749;49.606;8.738;2023-08-31T15:13:43;23.40;99.90
28546;DHT22;15749;49.606;8.738;2023-08-31T15:16:14;23.40;99.90
28546;DHT22;15749;49.606;8.738;2023-08-31T15:18:43;23.40;99.90
28546;DHT22;15749;49.606;8.738;2023-08-31T15:21:15;23.40;99.90
28546;DHT22;15749;49.606;8.738;2023-08-31T15:23:45;23.40;99.90
28546;DHT22;15749;49.606;8.738;2023-08-31T15:26:15;23.40;99.90
28546;DHT22;15749;49.606;8.738;2023-08-31T15:28:45;23.50;99.90
28546;DHT22;15749;49.606;8.738;2023-08-31T15:31:14;23.50;99.90
28546;DHT22;15749;49.606;8.738;2023-08-31T15:33:44;23.50;99.90
28546;DHT22;15749;49.606;8.738;2023-08-31T15:36:13;23.40;99.90
28546;DHT22;15749;49.606;8.738;2023-08-31T15:38:42;23.50;99.90
28546;DHT22;15749;49.606;8.738;2023-08-31T15:41:14;23.50;99.90
28546;DHT22;15749;49.606;8.738;2023-08-31T15:43:44;23.50;99.90
28546;DHT22;15749;49.606;8.738;2023-08-31T15:46:14;23.50;99.90
28546;DHT22;15749;49.606;8.738;2023-08-31T15:48:44;23.50;99.90
28546;DHT22;15749;49.606;8.738;2023-08-31T15:51:13;23.50;99.90
28546;DHT22;15749;49.606;8.738;2023-08-31T15:53:43;23.50;99.90
28546;DHT22;15749;49.606;8.738;2023-08-31T15:56:12;23.50;99.90
28546;DHT22;15749;49.606;8.738;2023-08-31T15:58:43;23.50;99.90